Time;durP1;ratioP1;P1;durP2;ratioP2;P2;SDS_P1;SDS_P2;PMS_P1;PMS_P2;Temp;Humidity;BMP_temperature;BMP_pressure;BME280_temperature;BME280_humidity;BME280_pressure;Samples;Min_cycle;Max_cycle;Signal;HPM_P1;HPM_P2
2023/01/28 00:02:20;;;;;;;2.17;1.42;;;;;;;2.02;100.00;99795.78;5010707;28;20026;-75
2023/01/28 00:04:45;;;;;;;1.95;1.33;;;;;;;2.00;100.00;99804.13;5011590;28;20033;-77
2023/01/28 00:07:11;;;;;;;1.30;1.20;;;;;;;2.01;100.00;99803.34;5011317;28;20034;-75
2023/01/28 00:09:38;;;;;;;1.35;1.23;;;;;;;2.03;100.00;99805.19;5025874;28;20091;-75
2023/01/28 00:12:04;;;;;;;1.63;1.30;;;;;;;2.02;100.00;99808.50;5009812;28;20061;-73
2023/01/28 00:14:29;;;;;;;2.08;1.38;;;;;;;2.00;100.00;99812.63;5011112;28;20057;-76
2023/01/28 00:16:56;;;;;;;1.95;1.30;;;;;;;2.02;100.00;99813.59;5010891;28;20029;-74
2023/01/28 00:19:22;;;;;;;1.83;1.40;;;;;;;2.04;100.00;99816.25;5009285;28;20029;-75
2023/01/28 00:21:48;;;;;;;1.73;1.20;;;;;;;2.09;100.00;99810.66;5009457;28;20038;-72
2023/01/28 00:24:14;;;;;;;1.20;1.10;;;;;;;2.03;100.00;99815.38;5011018;28;20029;-76
2023/01/28 00:26:40;;;;;;;1.80;1.30;;;;;;;2.09;100.00;99819.94;5011016;28;20104;-70
2023/01/28 00:29:05;;;;;;;5.28;1.60;;;;;;;2.03;100.00;99810.28;5010971;28;20026;-76
2023/01/28 00:31:31;;;;;;;2.38;1.40;;;;;;;2.03;100.00;99810.28;4998099;28;20029;-75
2023/01/28 00:33:56;;;;;;;2.90;1.38;;;;;;;2.04;100.00;99822.19;5010279;28;20029;-70
2023/01/28 00:36:23;;;;;;;1.95;1.20;;;;;;;2.07;100.00;99821.53;5011084;28;20117;-73
2023/01/28 00:38:54;;;;;;;1.15;1.05;;;;;;;2.03;100.00;99825.56;5009649;28;20745;-73
2023/01/28 00:41:22;;;;;;;1.77;1.30;;;;;;;1.97;100.00;99811.56;5009523;28;20029;-76
2023/01/28 00:43:48;;;;;;;1.38;1.10;;;;;;;1.98;100.00;99823.50;5025743;28;20069;-73
2023/01/28 00:46:15;;;;;;;1.85;1.30;;;;;;;1.94;100.00;99835.16;5009616;28;20048;-72
2023/01/28 00:48:42;;;;;;;1.52;1.30;;;;;;;1.96;100.00;99840.34;5005424;28;20400;-74
2023/01/28 00:51:09;;;;;;;2.50;1.20;;;;;;;1.98;100.00;99838.78;5004148;28;20109;-71
2023/01/28 00:53:35;;;;;;;1.20;1.10;;;;;;;1.95;100.00;99826.75;5010946;28;20365;-77
2023/01/28 00:56:02;;;;;;;1.20;1.10;;;;;;;1.96;100.00;99832.69;5010477;28;20022;-75
2023/01/28 00:58:28;;;;;;;1.27;1.17;;;;;;;2.01;100.00;99850.03;5010701;28;20037;-73
2023/01/28 01:00:53;;;;;;;1.52;1.20;;;;;;;1.76;100.00;99799.31;5010471;28;20626;-72
2023/01/28 01:03:19;;;;;;;1.75;1.30;;;;;;;1.98;100.00;99844.78;5010315;28;20415;-73
2023/01/28 01:05:45;;;;;;;2.10;1.40;;;;;;;2.11;100.00;99851.47;5010322;28;20037;-74
2023/01/28 01:08:10;;;;;;;3.17;1.80;;;;;;;2.17;100.00;99856.94;5010314;28;20036;-77
2023/01/28 01:10:37;;;;;;;2.75;1.52;;;;;;;2.15;100.00;99844.91;5009883;28;20083;-71
2023/01/28 01:13:04;;;;;;;2.85;1.67;;;;;;;1.82;100.00;99786.06;5010465;28;20499;-79
2023/01/28 01:15:29;;;;;;;2.92;1.70;;;;;;;2.17;100.00;99861.13;5028719;28;20124;-75
2023/01/28 01:17:55;;;;;;;1.58;1.30;;;;;;;2.10;100.00;99860.75;5014364;28;20476;-75
2023/01/28 01:20:24;;;;;;;2.03;1.48;;;;;;;2.13;100.00;99869.38;5013889;28;20491;-75
2023/01/28 01:22:50;;;;;;;2.20;1.50;;;;;;;2.03;100.00;99863.75;5014504;28;20098;-75
2023/01/28 01:25:17;;;;;;;1.67;1.33;;;;;;;2.06;100.00;99861.38;5029233;28;20029;-75
2023/01/28 01:27:44;;;;;;;1.73;1.50;;;;;;;2.05;100.00;99861.28;5012752;28;20189;-76
2023/01/28 01:30:11;;;;;;;2.13;1.42;;;;;;;1.97;100.00;99868.47;5012140;28;20037;-75
2023/01/28 01:32:37;;;;;;;2.08;1.40;;;;;;;1.98;100.00;99875.31;5014187;28;20488;-71
2023/01/28 01:35:07;;;;;;;2.15;1.40;;;;;;;2.02;100.00;99873.81;5013940;28;20022;-73
2023/01/28 01:37:37;;;;;;;1.40;1.30;;;;;;;1.90;100.00;99872.28;5013955;28;20037;-74
2023/01/28 01:40:03;;;;;;;1.48;1.35;;;;;;;1.94;100.00;99876.78;5012883;28;20080;-72
2023/01/28 01:42:31;;;;;;;1.35;1.20;;;;;;;1.81;100.00;99865.72;5013749;28;20025;-72
2023/01/28 01:45:06;;;;;;;1.40;1.20;;;;;;;1.92;100.00;99885.13;5014264;28;20522;-79
2023/01/28 01:47:52;;;;;;;1.50;1.23;;;;;;;1.86;100.00;99894.91;5012920;28;20030;-75
2023/01/28 01:50:32;;;;;;;1.38;1.23;;;;;;;1.72;100.00;99894.03;5014140;28;20061;-75
2023/01/28 01:53:03;;;;;;;1.67;1.40;;;;;;;1.72;100.00;99892.38;5014037;28;20108;-76
2023/01/28 01:55:32;;;;;;;1.67;1.23;;;;;;;1.67;100.00;99895.41;5012751;28;20388;-79
2023/01/28 01:58:01;;;;;;;1.42;1.23;;;;;;;1.73;100.00;99891.59;5014129;28;20034;-72
2023/01/28 02:00:26;;;;;;;3.53;1.33;;;;;;;1.68;100.00;99882.78;5013773;28;20034;-74
2023/01/28 02:02:52;;;;;;;1.38;1.20;;;;;;;1.71;100.00;99888.06;5013656;28;20037;-75
2023/01/28 02:05:21;;;;;;;1.42;1.25;;;;;;;1.68;100.00;99887.00;5012470;28;20168;-74
2023/01/28 02:07:50;;;;;;;2.13;1.17;;;;;;;1.70;100.00;99893.94;5014135;28;20395;-73
2023/01/28 02:10:17;;;;;;;1.52;1.25;;;;;;;1.65;100.00;99891.91;5013618;28;20268;-77
2023/01/28 02:12:55;;;;;;;1.27;1.13;;;;;;;1.55;100.00;99904.03;5012398;28;20034;-75
2023/01/28 02:15:24;;;;;;;1.35;1.10;;;;;;;1.54;100.00;99889.53;5014074;28;20037;-75
2023/01/28 02:17:50;;;;;;;1.45;1.30;;;;;;;1.61;100.00;99896.78;5013574;28;20026;-75
2023/01/28 02:20:24;;;;;;;1.50;1.30;;;;;;;1.60;100.00;99896.69;5012097;28;20040;-74
2023/01/28 02:23:16;;;;;;;1.52;1.27;;;;;;;1.75;100.00;99905.28;5013513;28;20026;-76
2023/01/28 02:26:18;;;;;;;1.27;1.17;;;;;;;1.81;100.00;99903.91;5012700;28;20053;-73
2023/01/28 02:28:52;;;;;;;1.75;1.38;;;;;;;1.80;100.00;99913.22;5013479;28;20124;-78
2023/01/28 02:31:20;;;;;;;1.45;1.30;;;;;;;1.81;100.00;99909.00;5013111;28;20385;-76
2023/01/28 02:33:51;;;;;;;1.30;1.20;;;;;;;1.68;100.00;99912.44;5012078;28;20453;-75
2023/01/28 02:36:34;;;;;;;1.23;1.10;;;;;;;1.53;100.00;99920.84;5013220;28;20087;-75
2023/01/28 02:39:06;;;;;;;2.30;1.10;;;;;;;1.45;100.00;99919.50;5013224;28;20038;-74
2023/01/28 02:41:39;;;;;;;0.90;0.90;;;;;;;1.25;100.00;99919.06;5012925;28;20486;-75
2023/01/28 02:44:04;;;;;;;1.13;1.02;;;;;;;1.22;100.00;99920.53;5012980;28;20038;-76
2023/01/28 02:49:20;;;;;;;1.92;1.30;;;;;;;1.23;100.00;99923.16;5012811;28;20416;-72
2023/01/28 02:52:07;;;;;;;1.67;1.40;;;;;;;1.23;100.00;99930.78;5012975;28;20033;-74
2023/01/28 02:55:15;;;;;;;2.17;1.25;;;;;;;0.89;100.00;99879.44;5011414;28;20029;-75
2023/01/28 02:58:08;;;;;;;1.60;1.50;;;;;;;1.18;100.00;99914.38;4971339;28;20133;-76
2023/01/28 03:00:46;;;;;;;1.85;1.35;;;;;;;1.25;100.00;99936.88;4971303;28;20106;-75
2023/01/28 03:03:22;;;;;;;1.55;1.20;;;;;;;1.23;100.00;99932.47;4971029;28;20043;-75
2023/01/28 03:06:05;;;;;;;1.70;1.20;;;;;;;1.13;100.00;99934.44;4971159;28;20066;-75
2023/01/28 03:39:04;;;;;;;2.15;1.38;;;;;;;1.19;100.00;99946.66;5011871;28;20044;-75
2023/01/28 03:41:30;;;;;;;1.60;1.40;;;;;;;1.25;100.00;99959.75;5010592;28;20026;-75
2023/01/28 03:43:55;;;;;;;0.95;0.95;;;;;;;1.02;100.00;99920.09;5012166;28;20026;-76
2023/01/28 03:46:21;;;;;;;1.30;1.20;;;;;;;1.26;100.00;99959.00;5011776;28;20030;-75
2023/01/28 03:48:46;;;;;;;1.60;1.20;;;;;;;1.17;100.00;99947.31;5011971;28;20523;-75
2023/01/28 03:51:11;;;;;;;1.67;1.58;;;;;;;1.34;100.00;99958.63;5011895;28;20026;-74
2023/01/28 03:53:39;;;;;;;1.33;1.23;;;;;;;1.18;100.00;99955.03;5011708;28;20377;-76
2023/01/28 03:56:05;;;;;;;1.30;1.20;;;;;;;1.22;100.00;99966.31;5011524;28;20041;-75
2023/01/28 03:58:51;;;;;;;1.75;1.42;;;;;;;0.94;100.00;99913.66;5011852;28;20030;-75
2023/01/28 04:01:17;;;;;;;2.15;1.83;;;;;;;1.13;100.00;99961.50;5010291;28;20022;-73
2023/01/28 04:03:43;;;;;;;1.98;1.50;;;;;;;1.07;100.00;99968.72;5011776;28;20044;-75
2023/01/28 04:06:09;;;;;;;1.92;1.58;;;;;;;1.12;100.00;99977.53;5011486;28;20029;-74
2023/01/28 04:08:34;;;;;;;1.60;1.40;;;;;;;1.09;100.00;99974.78;5011120;28;20100;-77
2023/01/28 04:11:14;;;;;;;1.50;1.40;;;;;;;1.15;100.00;99982.81;5010549;28;20041;-78
2023/01/28 04:13:43;;;;;;;1.70;1.40;;;;;;;1.10;100.00;99982.50;5011589;28;20041;-75
2023/01/28 04:16:09;;;;;;;2.50;1.92;;;;;;;1.10;100.00;99974.00;5011607;28;20034;-79
2023/01/28 04:18:35;;;;;;;2.25;1.70;;;;;;;1.21;100.00;99980.69;5011101;28;20582;-75
2023/01/28 04:21:00;;;;;;;2.00;1.52;;;;;;;1.43;100.00;99984.63;5011328;28;20038;-75
2023/01/28 04:23:26;;;;;;;2.72;1.88;;;;;;;1.47;100.00;99983.19;5011284;28;20387;-74
2023/01/28 04:25:51;;;;;;;1.98;1.52;;;;;;;1.36;100.00;99982.47;5009993;28;20546;-74
2023/01/28 04:28:17;;;;;;;2.10;1.55;;;;;;;1.24;100.00;99985.09;5011294;28;20053;-74
2023/01/28 04:30:42;;;;;;;2.53;1.80;;;;;;;1.20;100.00;99983.13;5011334;28;20411;-74
2023/01/28 04:33:07;;;;;;;3.95;1.60;;;;;;;1.01;100.00;99988.63;5011260;28;20392;-74
2023/01/28 04:35:33;;;;;;;2.35;1.52;;;;;;;0.66;100.00;99942.31;5028004;28;20492;-74
2023/01/28 04:37:58;;;;;;;3.53;1.92;;;;;;;0.92;100.00;99986.34;5028231;28;20052;-74
2023/01/28 04:40:24;;;;;;;3.63;2.13;;;;;;;0.92;100.00;99994.88;5028271;28;20087;-75
2023/01/28 04:42:56;;;;;;;4.97;2.83;;;;;;;0.90;100.00;99987.94;5011767;28;20534;-75
2023/01/28 04:45:22;;;;;;;4.32;2.80;;;;;;;0.89;100.00;100003.94;5028294;28;20050;-75
2023/01/28 04:47:48;;;;;;;6.03;2.60;;;;;;;0.50;100.00;99930.22;5028148;28;20052;-74
2023/01/28 04:50:13;;;;;;;3.57;2.20;;;;;;;0.98;100.00;100007.09;5009609;28;20040;-74
2023/01/28 04:52:39;;;;;;;4.93;2.72;;;;;;;0.72;100.00;99946.91;5005861;28;20037;-76
2023/01/28 04:55:05;;;;;;;5.78;2.88;;;;;;;1.11;100.00;99999.53;5006092;28;20045;-75
2023/01/28 04:57:31;;;;;;;4.45;2.67;;;;;;;1.23;100.00;100008.75;4997489;28;20121;-76
2023/01/28 04:59:56;;;;;;;4.70;2.95;;;;;;;1.37;100.00;100019.84;5007440;28;20173;-87
2023/01/28 05:02:21;;;;;;;4.68;2.70;;;;;;;1.44;100.00;100017.78;5008190;28;20034;-78
2023/01/28 05:04:47;;;;;;;6.00;2.95;;;;;;;1.21;100.00;99964.53;5008144;28;20040;-75
2023/01/28 05:07:12;;;;;;;5.53;3.10;;;;;;;1.46;100.00;100017.91;4995154;28;20416;-76
2023/01/28 05:09:38;;;;;;;5.93;3.08;;;;;;;1.25;100.00;99990.28;5009127;28;20418;-75
2023/01/28 05:12:03;;;;;;;5.63;2.75;;;;;;;1.53;100.00;100032.78;5010885;28;20534;-76
2023/01/28 05:14:29;;;;;;;5.90;2.90;;;;;;;1.55;100.00;100022.72;5010907;28;20026;-76
2023/01/28 05:16:54;;;;;;;5.72;3.17;;;;;;;1.52;100.00;100033.59;5008757;28;20476;-73
2023/01/28 05:19:20;;;;;;;5.70;3.17;;;;;;;1.45;100.00;100026.31;5010679;28;20085;-75
2023/01/28 05:21:45;;;;;;;4.68;2.55;;;;;;;1.38;100.00;100037.75;5010380;28;20065;-75
2023/01/28 05:24:11;;;;;;;4.07;2.88;;;;;;;1.40;100.00;100022.59;5009343;28;20034;-76
2023/01/28 05:26:36;;;;;;;6.13;3.00;;;;;;;1.50;100.00;100034.28;5010789;28;20078;-76
2023/01/28 05:29:03;;;;;;;3.50;2.45;;;;;;;1.44;100.00;100035.59;5010951;28;20399;-73
2023/01/28 05:31:28;;;;;;;4.22;2.50;;;;;;;1.37;100.00;100038.53;5009427;28;20026;-76
2023/01/28 05:33:54;;;;;;;3.40;2.38;;;;;;;1.43;100.00;100045.69;5010462;28;20041;-73
2023/01/28 05:36:19;;;;;;;4.30;2.30;;;;;;;1.38;100.00;100041.97;5011075;28;20127;-73
2023/01/28 05:38:45;;;;;;;4.38;2.80;;;;;;;1.45;100.00;100047.53;5010969;28;20499;-75
2023/01/28 05:41:10;;;;;;;6.80;4.15;;;;;;;1.41;100.00;100034.53;5009294;28;20419;-78
2023/01/28 05:43:36;;;;;;;6.30;3.55;;;;;;;1.39;100.00;100046.28;5009159;28;20484;-75
2023/01/28 05:46:01;;;;;;;5.10;3.40;;;;;;;1.25;100.00;100018.25;5009446;28;20037;-76
2023/01/28 05:48:27;;;;;;;4.43;2.85;;;;;;;1.42;100.00;100060.06;5009293;28;20476;-73
2023/01/28 05:50:52;;;;;;;5.07;2.60;;;;;;;1.37;100.00;100056.34;5010915;28;20168;-74
2023/01/28 05:53:18;;;;;;;3.75;2.75;;;;;;;1.27;100.00;100049.75;5010477;28;20105;-73
2023/01/28 05:55:47;;;;;;;8.10;3.65;;;;;;;1.34;100.00;100062.88;5010278;28;20514;-73
2023/01/28 05:58:15;;;;;;;6.22;3.22;;;;;;;1.39;100.00;100071.69;5009226;28;20545;-73
2023/01/28 06:00:40;;;;;;;4.55;2.83;;;;;;;1.40;100.00;100081.97;5010882;28;20033;-77
2023/01/28 06:03:05;;;;;;;4.07;2.20;;;;;;;1.32;100.00;100062.78;5012685;28;20045;-73
2023/01/28 06:05:31;;;;;;;3.78;2.50;;;;;;;1.52;100.00;100079.38;5012759;28;20107;-76
2023/01/28 06:07:56;;;;;;;8.77;4.45;;;;;;;1.52;100.00;100073.41;5013768;28;20096;-74
2023/01/28 06:10:22;;;;;;;12.93;6.32;;;;;;;1.56;100.00;100075.38;5013881;28;20033;-76
2023/01/28 06:12:47;;;;;;;15.40;8.77;;;;;;;1.41;100.00;100055.75;5013858;28;20029;-76
2023/01/28 06:15:13;;;;;;;9.30;5.10;;;;;;;1.53;100.00;100070.06;5013686;28;20022;-73
2023/01/28 06:17:38;;;;;;;5.40;2.60;;;;;;;1.39;100.00;100079.34;5013766;28;20105;-73
2023/01/28 06:20:04;;;;;;;4.30;2.97;;;;;;;1.40;100.00;100098.91;5012344;28;20030;-73
2023/01/28 06:22:30;;;;;;;3.83;2.47;;;;;;;1.44;100.00;100098.31;5013384;28;20112;-75
2023/01/28 06:24:55;;;;;;;5.20;3.00;;;;;;;1.26;100.00;100057.28;5013404;28;20034;-74
2023/01/28 06:27:21;;;;;;;5.47;3.00;;;;;;;1.50;100.00;100096.19;5013744;28;20054;-75
2023/01/28 06:29:46;;;;;;;4.72;2.35;;;;;;;1.62;100.00;100106.31;5013408;28;20022;-73
2023/01/28 06:32:12;;;;;;;3.92;2.38;;;;;;;1.05;100.00;100003.34;5013534;28;20030;-75
2023/01/28 06:34:37;;;;;;;5.70;2.60;;;;;;;1.72;100.00;100103.59;5013289;28;20029;-76
2023/01/28 06:37:03;;;;;;;4.35;2.85;;;;;;;1.80;100.00;100121.06;5013392;28;20033;-75
2023/01/28 06:39:31;;;;;;;3.83;2.60;;;;;;;1.84;100.00;100113.69;5013307;28;20061;-73
2023/01/28 06:41:57;;;;;;;3.50;2.30;;;;;;;1.87;100.00;100123.19;5011542;28;20026;-75
2023/01/28 06:44:22;;;;;;;3.53;2.30;;;;;;;1.91;100.00;100110.78;5003028;28;20092;-75
2023/01/28 06:46:48;;;;;;;2.78;2.00;;;;;;;2.01;100.00;100124.13;5009709;28;20038;-75
2023/01/28 06:49:13;;;;;;;3.55;1.77;;;;;;;2.04;100.00;100129.41;5012255;28;20479;-73
2023/01/28 06:51:39;;;;;;;3.28;2.22;;;;;;;2.07;100.00;100137.25;5012996;28;20460;-74
2023/01/28 06:54:04;;;;;;;3.60;2.45;;;;;;;2.18;100.00;100130.31;5012648;28;20026;-77
2023/01/28 06:56:30;;;;;;;3.35;2.13;;;;;;;1.99;100.00;100102.78;5002346;28;20385;-75
2023/01/28 06:58:55;;;;;;;5.13;2.78;;;;;;;2.18;100.00;100125.22;4998718;28;20034;-72
2023/01/28 07:01:22;;;;;;;4.15;2.83;;;;;;;2.25;100.00;100137.56;4999143;28;20033;-74
2023/01/28 07:03:48;;;;;;;3.72;2.40;;;;;;;2.28;100.00;100153.06;5000632;28;20468;-72
2023/01/28 07:06:13;;;;;;;4.22;2.60;;;;;;;2.13;100.00;100109.66;5003175;28;20021;-72
2023/01/28 07:08:40;;;;;;;4.38;2.40;;;;;;;2.19;100.00;100117.66;5002339;28;20021;-74
2023/01/28 07:11:06;;;;;;;3.45;2.60;;;;;;;2.29;100.00;100157.34;5003131;28;20511;-74
2023/01/28 07:13:31;;;;;;;5.53;2.28;;;;;;;2.34;100.00;100150.00;5001232;28;20026;-75
2023/01/28 07:15:57;;;;;;;5.10;2.97;;;;;;;2.34;100.00;100150.00;5016618;28;20034;-74
2023/01/28 07:18:23;;;;;;;5.28;3.83;;;;;;;2.15;100.00;100114.84;5002920;28;20447;-74
2023/01/28 07:20:48;;;;;;;53.75;25.25;;;;;;;2.36;100.00;100146.78;5001323;28;20029;-74
2023/01/28 07:23:14;;;;;;;100.90;52.63;;;;;;;2.52;100.00;100160.53;5002734;28;20088;-71
2023/01/28 07:25:39;;;;;;;36.05;21.38;;;;;;;2.58;100.00;100168.56;5006284;28;20507;-74
2023/01/28 07:28:05;;;;;;;7.50;5.00;;;;;;;2.68;100.00;100168.34;4996781;28;20496;-75
2023/01/28 07:30:30;;;;;;;4.53;2.80;;;;;;;2.50;100.00;100162.94;5001751;28;20026;-75
2023/01/28 07:32:58;;;;;;;4.47;2.83;;;;;;;2.55;100.00;100168.34;5001728;28;20030;-75
2023/01/28 07:35:25;;;;;;;4.95;3.20;;;;;;;2.59;100.00;100171.19;5000152;28;20467;-75
2023/01/28 07:37:52;;;;;;;6.43;4.25;;;;;;;2.53;100.00;100159.72;5003016;28;20029;-75
2023/01/28 07:40:17;;;;;;;6.30;4.90;;;;;;;2.59;100.00;100166.09;5002058;28;20034;-74
2023/01/28 07:42:43;;;;;;;6.90;3.40;;;;;;;2.66;100.00;100163.94;5002694;28;20496;-71
2023/01/28 07:45:08;;;;;;;32.05;28.55;;;;;;;2.70;100.00;100174.41;5012186;28;20037;-71
2023/01/28 07:47:34;;;;;;;5.47;4.22;;;;;;;2.77;100.00;100172.25;5011904;28;20507;-69
2023/01/28 07:50:00;;;;;;;5.22;3.80;;;;;;;2.77;100.00;100170.59;5011835;28;20037;-71
2023/01/28 07:52:26;;;;;;;5.20;3.20;;;;;;;2.74;100.00;100168.75;5011345;28;20476;-71
2023/01/28 07:54:53;;;;;;;3.67;2.33;;;;;;;2.87;100.00;100195.00;5011726;28;20033;-72
2023/01/28 07:57:25;;;;;;;6.03;3.97;;;;;;;2.85;100.00;100199.13;5028803;28;20107;-72
2023/01/28 07:59:51;;;;;;;5.13;2.60;;;;;;;2.87;100.00;100192.47;5028819;28;20045;-71
2023/01/28 08:02:17;;;;;;;3.90;2.47;;;;;;;2.57;100.00;100162.56;5028719;28;20439;-76
2023/01/28 08:04:43;;;;;;;3.33;2.20;;;;;;;2.86;100.00;100208.53;5028856;28;20033;-71
2023/01/28 08:07:09;;;;;;;3.17;2.25;;;;;;;2.99;100.00;100202.53;5028946;28;20120;-71
2023/01/28 08:09:34;;;;;;;3.60;2.42;;;;;;;3.09;100.00;100210.00;5028898;28;20033;-71
2023/01/28 08:12:04;;;;;;;4.53;3.13;;;;;;;3.13;100.00;100205.94;5028948;28;20042;-71
2023/01/28 08:14:29;;;;;;;4.03;2.80;;;;;;;3.16;100.00;100221.47;4995858;28;20088;-71
2023/01/28 08:16:56;;;;;;;4.15;2.50;;;;;;;3.20;100.00;100218.31;5011971;28;20026;-70
2023/01/28 08:19:21;;;;;;;3.78;2.72;;;;;;;3.15;100.00;100224.78;5028727;28;20030;-71
2023/01/28 08:21:47;;;;;;;3.30;2.40;;;;;;;2.86;100.00;100183.03;5028826;28;20030;-73
2023/01/28 08:24:12;;;;;;;6.05;4.72;;;;;;;3.11;100.00;100225.41;5027975;28;20025;-72
2023/01/28 08:26:38;;;;;;;4.05;3.20;;;;;;;3.13;100.00;100224.69;5011798;28;20053;-70
2023/01/28 08:29:04;;;;;;;3.47;2.67;;;;;;;3.16;100.00;100236.75;5014114;28;20048;-71
2023/01/28 08:31:30;;;;;;;3.38;2.30;;;;;;;3.16;100.00;100235.09;5011152;28;20486;-71
2023/01/28 08:33:56;;;;;;;3.53;2.40;;;;;;;3.16;100.00;100236.75;5009823;28;20408;-73
2023/01/28 08:36:21;;;;;;;5.97;2.75;;;;;;;3.14;100.00;100231.56;5025392;28;20042;-71
2023/01/28 08:39:07;;;;;;;4.30;2.65;;;;;;;3.10;100.00;100242.34;5027761;28;20161;-71
2023/01/28 08:41:32;;;;;;;5.53;2.78;;;;;;;3.08;100.00;100224.41;5028118;28;20252;-72
2023/01/28 08:43:59;;;;;;;3.67;2.65;;;;;;;2.87;100.00;100197.56;5028125;28;20083;-71
2023/01/28 08:46:25;;;;;;;4.15;2.95;;;;;;;3.11;100.00;100235.59;5028327;28;20115;-71
2023/01/28 08:48:52;;;;;;;5.68;4.22;;;;;;;3.24;100.00;100238.13;5028293;28;20045;-71
2023/01/28 08:51:19;;;;;;;6.93;5.18;;;;;;;3.29;100.00;100241.84;5028402;28;20506;-70
2023/01/28 08:53:44;;;;;;;7.45;6.10;;;;;;;3.37;100.00;100239.78;5028283;28;20423;-71
2023/01/28 08:56:09;;;;;;;5.18;3.92;;;;;;;3.50;100.00;100243.94;5028199;28;20037;-71
2023/01/28 08:58:35;;;;;;;6.22;4.95;;;;;;;3.52;100.00;100238.16;5028099;28;20496;-71
2023/01/28 09:01:05;;;;;;;5.00;3.80;;;;;;;3.66;100.00;100243.22;5028295;28;20484;-75
2023/01/28 09:03:31;;;;;;;3.83;2.67;;;;;;;3.42;100.00;100219.66;4995431;28;20045;-71
2023/01/28 09:06:02;;;;;;;8.93;4.97;;;;;;;3.66;100.00;100248.34;5028011;28;20049;-71
2023/01/28 09:08:27;;;;;;;4.40;2.53;;;;;;;3.54;100.00;100238.28;5028140;28;20029;-70
2023/01/28 09:10:56;;;;;;;3.67;2.67;;;;;;;3.37;100.00;100204.91;5013775;28;20125;-69
2023/01/28 09:13:22;;;;;;;4.78;3.38;;;;;;;3.69;100.00;100243.44;5010611;28;20072;-71
2023/01/28 09:15:48;;;;;;;5.57;3.60;;;;;;;3.76;100.00;100242.13;5010634;28;20120;-71
2023/01/28 09:18:13;;;;;;;4.55;2.63;;;;;;;3.72;100.00;100243.59;5010833;28;20032;-71
2023/01/28 09:20:39;;;;;;;4.93;3.47;;;;;;;3.61;100.00;100229.31;5010668;28;20104;-71
2023/01/28 09:23:05;;;;;;;4.15;2.70;;;;;;;3.78;100.00;100241.41;5010520;28;20026;-71
2023/01/28 09:25:31;;;;;;;4.20;2.78;;;;;;;3.81;100.00;100235.63;5009277;28;20034;-71
2023/01/28 09:27:57;;;;;;;6.60;5.07;;;;;;;3.75;100.00;100231.03;5010694;28;20054;-71
2023/01/28 09:30:23;;;;;;;4.47;3.33;;;;;;;3.85;100.00;100227.34;5010567;28;20496;-70
2023/01/28 09:32:50;;;;;;;6.15;3.55;;;;;;;3.91;100.00;100217.50;5010760;28;20081;-71
2023/01/28 09:35:16;;;;;;;3.95;2.95;;;;;;;3.92;100.00;100209.03;5011921;28;20026;-74
2023/01/28 09:37:42;;;;;;;4.07;2.90;;;;;;;4.03;100.00;100227.56;5014413;28;20033;-71
2023/01/28 09:40:33;;;;;;;5.18;3.70;;;;;;;4.09;100.00;100225.38;5014240;28;20108;-72
2023/01/28 09:43:26;;;;;;;6.00;3.70;;;;;;;4.01;100.00;100208.69;5013989;28;20041;-72
2023/01/28 09:45:54;;;;;;;4.53;2.88;;;;;;;4.00;100.00;100220.59;5014564;28;20116;-71
2023/01/28 09:48:23;;;;;;;5.25;2.97;;;;;;;3.93;100.00;100227.81;5014427;28;20038;-71
2023/01/28 09:50:53;;;;;;;5.63;3.55;;;;;;;3.87;100.00;100231.75;5013944;28;20033;-69
2023/01/28 09:53:21;;;;;;;5.10;3.45;;;;;;;3.91;100.00;100230.25;5014672;28;20032;-74
2023/01/28 09:55:53;;;;;;;5.32;3.88;;;;;;;4.00;100.00;100235.03;5012818;28;20041;-69
2023/01/28 09:58:18;;;;;;;5.65;3.80;;;;;;;4.05;100.00;100229.41;5013958;28;20113;-72
2023/01/28 10:00:59;;;;;;;11.02;6.72;;;;;;;4.08;100.00;100215.06;5013904;28;20531;-71
2023/01/28 10:03:55;;;;;;;6.45;3.95;;;;;;;3.99;100.00;100188.19;5014057;28;20053;-72
2023/01/28 10:06:30;;;;;;;4.95;3.28;;;;;;;4.13;100.00;100221.34;4991943;28;20062;-72
2023/01/28 10:09:19;;;;;;;4.78;3.05;;;;;;;4.17;100.00;100220.72;4991668;28;20520;-69
2023/01/28 10:12:09;;;;;;;4.38;2.95;;;;;;;4.19;100.00;100219.13;4991912;28;20042;-71
2023/01/28 10:14:44;;;;;;;4.05;2.63;;;;;;;4.18;100.00;100225.03;4991813;28;20026;-71
2023/01/28 10:17:17;;;;;;;4.10;2.40;;;;;;;4.18;100.00;100217.38;4991553;28;20038;-71
2023/01/28 10:19:57;;;;;;;4.18;2.97;;;;;;;3.96;100.00;100179.47;4991787;28;20532;-71
2023/01/28 10:22:28;;;;;;;3.70;2.60;;;;;;;4.03;100.00;100187.56;4991807;28;20022;-71
2023/01/28 10:24:57;;;;;;;5.50;3.40;;;;;;;4.35;100.00;100224.34;4991510;28;20067;-71
2023/01/28 10:27:26;;;;;;;5.40;2.60;;;;;;;4.43;100.00;100223.91;4991015;28;20093;-71
2023/01/28 10:29:52;;;;;;;4.88;2.90;;;;;;;4.37;100.00;100225.31;4991390;28;20104;-69
2023/01/28 10:32:33;;;;;;;5.45;2.90;;;;;;;4.34;100.00;100221.69;4974937;28;20062;-71
2023/01/28 10:35:00;;;;;;;11.55;5.80;;;;;;;4.18;100.00;100217.38;4991485;28;20026;-71
2023/01/28 10:37:27;;;;;;;4.97;2.70;;;;;;;4.19;100.00;100221.69;4991131;28;20066;-70
2023/01/28 10:39:57;;;;;;;20.00;12.52;;;;;;;4.17;100.00;100211.34;4991424;28;20032;-75
2023/01/28 10:42:33;;;;;;;6.40;3.88;;;;;;;4.20;100.00;100229.44;4993153;28;20041;-71
2023/01/28 10:45:19;;;;;;;5.63;3.20;;;;;;;4.33;100.00;100231.03;5013080;28;20029;-72
2023/01/28 10:48:03;;;;;;;3.92;2.58;;;;;;;4.09;100.00;100199.84;5012435;28;20061;-71
2023/01/28 10:50:30;;;;;;;5.47;3.97;;;;;;;4.24;100.00;100220.28;5012876;28;20035;-71
2023/01/28 10:52:57;;;;;;;6.05;3.97;;;;;;;4.26;100.00;100238.25;5011855;28;20033;-70
2023/01/28 10:55:28;;;;;;;4.57;3.08;;;;;;;3.97;100.00;100191.44;5011661;28;20030;-71
2023/01/28 10:57:54;;;;;;;6.80;4.38;;;;;;;4.27;100.00;100227.25;5027481;28;20155;-72
2023/01/28 11:00:19;;;;;;;5.45;3.17;;;;;;;4.01;100.00;100189.16;5012844;28;20037;-72
2023/01/28 11:02:47;;;;;;;8.18;4.60;;;;;;;4.29;100.00;100229.09;5012692;28;20034;-71
2023/01/28 11:05:28;;;;;;;7.78;5.15;;;;;;;4.35;100.00;100244.78;5012720;28;20037;-72
2023/01/28 11:08:14;;;;;;;5.22;3.35;;;;;;;4.37;100.00;100237.19;5012868;28;20403;-72
2023/01/28 11:10:40;;;;;;;5.47;3.58;;;;;;;4.44;100.00;100231.66;5013117;28;20033;-71
2023/01/28 11:13:13;;;;;;;3.92;2.30;;;;;;;4.37;100.00;100239.75;5012735;28;20400;-73
2023/01/28 11:15:57;;;;;;;3.72;2.40;;;;;;;4.35;100.00;100237.13;5011068;28;20483;-72
2023/01/28 11:18:27;;;;;;;5.45;2.60;;;;;;;4.33;100.00;100219.94;5012648;28;20026;-72
2023/01/28 11:20:57;;;;;;;;;;;;;;;4.45;100.00;100235.97;5013116;28;20057;-72
2023/01/28 11:23:26;;;;;;;3.72;2.20;;;;;;;4.27;100.00;100223.00;5012485;28;19918;-70
2023/01/28 11:26:01;;;;;;;5.40;2.97;;;;;;;4.46;100.00;100224.97;5012349;28;20399;-70
2023/01/28 11:28:27;;;;;;;5.18;3.40;;;;;;;4.25;100.00;100191.38;5012415;28;20141;-71
2023/01/28 11:30:57;;;;;;;4.38;3.03;;;;;;;4.16;100.00;100189.19;5012562;28;20101;-72
2023/01/28 11:33:31;;;;;;;5.40;2.80;;;;;;;4.30;100.00;100233.41;5012098;28;20037;-72
2023/01/28 11:36:10;;;;;;;7.80;4.57;;;;;;;4.25;100.00;100229.72;5011986;28;20030;-72
2023/01/28 11:38:46;;;;;;;6.70;4.47;;;;;;;4.15;100.00;100235.97;5012088;28;20112;-72
2023/01/28 11:41:14;;;;;;;7.45;4.78;;;;;;;4.06;100.00;100232.84;5012125;28;20330;-71
2023/01/28 11:43:41;;;;;;;6.75;3.47;;;;;;;3.93;100.00;100231.25;5026270;28;20552;-72
2023/01/28 11:46:16;;;;;;;7.72;5.40;;;;;;;3.76;100.00;100196.16;5012226;28;20522;-71
2023/01/28 11:49:18;;;;;;;12.10;7.55;;;;;;;3.95;100.00;100234.78;5012332;28;20091;-72
2023/01/28 11:51:58;;;;;;;7.18;4.68;;;;;;;4.08;100.00;100233.81;5011808;28;20033;-71
2023/01/28 11:55:06;;;;;;;10.80;7.07;;;;;;;4.05;100.00;100243.88;5012088;28;20026;-74
2023/01/28 11:57:54;;;;;;;14.68;8.23;;;;;;;3.80;100.00;100200.66;5011773;28;20033;-72
2023/01/28 12:00:41;;;;;;;33.25;19.42;;;;;;;4.10;100.00;100242.47;5011479;28;20423;-72
2023/01/28 12:03:18;;;;;;;11.10;6.95;;;;;;;4.27;100.00;100240.88;5011554;28;20527;-71
2023/01/28 12:06:10;;;;;;;6.20;3.58;;;;;;;4.32;100.00;100236.91;5011456;28;20057;-71
2023/01/28 12:08:44;;;;;;;12.65;8.05;;;;;;;4.36;100.00;100241.44;4970134;28;20042;-71
2023/01/28 12:14:33;;;;;;;10.13;6.43;;;;;;;4.34;100.00;100249.81;4970208;28;20102;-71